createdAt,value
2022-09-04T00:00:57.807Z,89.85
2022-09-04T00:01:57.764Z,89.75
2022-09-04T00:02:57.788Z,90.05
2022-09-04T00:03:57.859Z,90.25
2022-09-04T00:04:57.829Z,89.89
2022-09-04T00:05:57.720Z,90.40
2022-09-04T00:06:57.715Z,89.99
2022-09-04T00:07:57.723Z,90.30
2022-09-04T00:08:57.731Z,91.11
2022-09-04T00:09:57.737Z,91.01
2022-09-04T00:10:57.723Z,90.05
2022-09-04T00:11:57.695Z,90.16
2022-09-04T00:12:57.703Z,90.30
2022-09-04T00:13:57.713Z,90.09
2022-09-04T00:14:57.658Z,90.40
2022-09-04T00:15:57.730Z,90.20
2022-09-04T00:16:57.716Z,90.50
2022-09-04T00:17:57.675Z,90.40
2022-09-04T00:18:57.657Z,90.14
2022-09-04T00:19:58.392Z,89.99
2022-09-04T00:20:57.660Z,90.20
2022-09-04T00:21:57.630Z,90.14
2022-09-04T00:22:57.620Z,90.85
2022-09-04T00:23:57.625Z,91.05
2022-09-04T00:24:57.611Z,91.46
2022-09-04T00:25:57.687Z,90.95
2022-09-04T00:26:57.601Z,90.85
2022-09-04T00:27:57.549Z,91.05
2022-09-04T00:28:57.549Z,91.36
2022-09-04T00:29:57.580Z,91.46
2022-09-04T00:30:58.490Z,91.16
2022-09-04T00:31:57.553Z,91.16
2022-09-04T00:32:58.382Z,91.16
2022-09-04T00:33:57.544Z,91.36
2022-09-04T00:34:57.549Z,91.56
2022-09-04T00:35:57.519Z,91.26
2022-09-04T00:36:57.486Z,91.46
2022-09-04T00:37:57.522Z,90.95
2022-09-04T00:38:57.569Z,91.26
2022-09-04T00:39:57.626Z,91.46
2022-09-04T00:40:57.517Z,90.85
2022-09-04T00:41:57.593Z,91.16
2022-09-04T00:42:57.616Z,91.36
2022-09-04T00:43:57.459Z,91.46
2022-09-04T00:44:57.457Z,91.77
2022-09-04T00:45:57.468Z,91.56
2022-09-04T00:46:57.449Z,91.56
2022-09-04T00:47:57.467Z,91.36
2022-09-04T00:48:57.424Z,91.26
2022-09-04T00:49:57.408Z,91.36
2022-09-04T00:50:57.390Z,91.50
2022-09-04T00:51:57.432Z,91.30
2022-09-04T00:52:59.358Z,91.40
2022-09-04T00:53:57.406Z,91.91
2022-09-04T00:54:57.377Z,91.71
2022-09-04T00:55:57.355Z,91.91
2022-09-04T00:56:57.396Z,91.81
2022-09-04T00:57:57.311Z,91.91
2022-09-04T00:58:57.328Z,91.81
2022-09-04T00:59:57.336Z,92.32
2022-09-04T01:00:57.414Z,91.85
2022-09-04T01:01:57.405Z,91.75
2022-09-04T01:02:58.848Z,92.05
2022-09-04T01:03:58.442Z,92.26
2022-09-04T01:04:57.284Z,91.96
2022-09-04T01:05:57.272Z,92.36
2022-09-04T01:06:57.283Z,92.67
2022-09-04T01:07:57.329Z,92.97
2022-09-04T01:08:57.264Z,93.28
2022-09-04T01:09:57.277Z,93.18
2022-09-04T01:10:57.274Z,92.87
2022-09-04T01:11:57.257Z,92.46
2022-09-04T01:12:57.280Z,92.57
2022-09-04T01:13:57.216Z,92.36
2022-09-04T01:14:57.219Z,93.48
2022-09-04T01:15:57.209Z,93.28
2022-09-04T01:16:57.242Z,93.22
2022-09-04T01:17:57.219Z,93.07
2022-09-04T01:18:57.176Z,93.79
2022-09-04T01:19:57.144Z,93.99
2022-09-04T01:20:57.251Z,94.55
2022-09-04T01:21:57.113Z,94.45
2022-09-04T01:23:31.278Z,94.34
2022-09-04T01:23:57.152Z,94.40
2022-09-04T01:24:57.157Z,94.34
2022-09-04T01:26:29.624Z,95.12
2022-09-04T01:26:57.115Z,94.40
2022-09-04T01:28:31.309Z,93.73
2022-09-04T01:28:57.078Z,93.59
2022-09-04T01:29:57.146Z,93.84
2022-09-04T01:31:29.515Z,93.93
2022-09-04T01:31:57.086Z,93.22
2022-09-04T01:32:57.033Z,93.22
2022-09-04T01:33:57.798Z,93.43
2022-09-04T01:34:57.069Z,93.32
2022-09-04T01:35:57.079Z,93.43
2022-09-04T01:36:57.051Z,93.26
2022-09-04T01:37:57.023Z,93.47
2022-09-04T01:38:57.068Z,93.98
2022-09-04T01:39:57.089Z,93.77
2022-09-04T01:40:57.010Z,93.77
2022-09-04T01:41:56.991Z,93.88
2022-09-04T01:42:56.995Z,93.77
2022-09-04T01:43:56.964Z,93.88
2022-09-04T01:44:56.934Z,93.67
2022-09-04T02:02:37.364Z,94.64
2022-09-04T02:03:37.302Z,93.96
2022-09-04T02:04:38.957Z,93.76
2022-09-04T02:05:38.566Z,93.96
2022-09-04T02:06:38.492Z,93.96
2022-09-04T02:07:38.437Z,93.66
2022-09-04T02:08:38.440Z,94.07
2022-09-04T02:09:38.442Z,94.37
2022-09-04T02:10:38.424Z,94.58
2022-09-04T02:11:38.477Z,94.73
2022-09-04T02:12:38.399Z,94.42
2022-09-04T02:13:38.413Z,94.82
2022-09-04T02:14:38.387Z,95.13
2022-09-04T02:15:38.378Z,95.03
2022-09-04T02:16:38.410Z,94.42
2022-09-04T02:17:38.332Z,95.13
2022-09-04T02:18:38.345Z,95.34
2022-09-04T02:19:38.361Z,95.09
2022-09-04T02:20:38.355Z,94.93
2022-09-04T02:21:38.986Z,95.34
2022-09-04T02:22:38.316Z,95.03
2022-09-04T02:23:38.301Z,94.93
2022-09-04T02:24:38.308Z,95.23
2022-09-04T02:25:38.289Z,95.23
2022-09-04T02:26:38.291Z,95.44
2022-09-04T02:27:38.281Z,95.13
2022-09-04T02:28:38.270Z,95.13
2022-09-04T02:30:12.892Z,95.44
2022-09-04T02:30:38.234Z,95.13
2022-09-04T02:31:38.290Z,95.54
2022-09-04T02:32:38.238Z,95.59
2022-09-04T02:33:38.242Z,95.44
2022-09-04T02:34:38.231Z,96.10
2022-09-04T02:35:38.260Z,96.15
2022-09-04T02:36:38.186Z,96.15
2022-09-04T02:37:38.186Z,96.30
2022-09-04T02:38:38.219Z,95.44
2022-09-04T02:39:38.292Z,96.10
2022-09-04T02:40:38.200Z,96.05
2022-09-04T02:41:38.208Z,96.10
2022-09-04T02:42:38.187Z,95.69
2022-09-04T02:43:38.125Z,96.30
2022-09-04T02:44:38.134Z,96.30
2022-09-04T02:45:38.117Z,96.41
2022-09-04T02:46:42.543Z,96.10
2022-09-04T02:47:40.148Z,96.30
2022-09-04T02:48:38.104Z,96.81
2022-09-04T02:49:38.190Z,97.49
2022-09-04T02:50:38.103Z,97.38
2022-09-04T02:51:38.086Z,97.08
2022-09-04T02:52:38.097Z,97.89
2022-09-04T02:53:38.078Z,97.38
2022-09-04T02:54:38.057Z,97.69
2022-09-04T02:55:38.084Z,97.69
2022-09-04T02:56:38.014Z,97.08
2022-09-04T02:57:38.087Z,96.97
2022-09-04T02:58:38.073Z,97.69
2022-09-04T02:59:38.056Z,97.28
2022-09-04T03:00:38.092Z,97.08
2022-09-04T03:01:38.068Z,97.12
2022-09-04T03:02:38.043Z,96.92
2022-09-04T03:03:38.018Z,96.10
2022-09-04T03:04:37.997Z,96.61
2022-09-04T03:05:37.990Z,96.41
2022-09-04T03:06:38.021Z,96.20
2022-09-04T03:07:38.025Z,96.34
2022-09-04T03:08:37.957Z,96.75
2022-09-04T03:09:37.982Z,96.25
2022-09-04T03:10:37.992Z,96.55
2022-09-04T03:11:37.931Z,96.96
2022-09-04T03:12:37.944Z,96.96
2022-09-04T03:13:37.927Z,96.86
2022-09-04T03:14:37.929Z,96.96
2022-09-04T03:16:11.948Z,97.21
2022-09-04T03:16:37.947Z,97.16
2022-09-04T03:17:38.006Z,97.37
2022-09-04T03:18:37.965Z,97.21
2022-09-04T03:20:10.894Z,97.47
2022-09-04T03:20:37.933Z,97.06
2022-09-04T03:22:10.413Z,97.21
2022-09-04T03:22:37.860Z,97.27
2022-09-04T03:23:37.839Z,97.21
2022-09-04T03:24:37.861Z,97.11
2022-09-04T03:25:37.989Z,97.16
2022-09-04T03:26:37.777Z,97.16
2022-09-04T03:27:37.818Z,97.21
2022-09-04T03:28:37.792Z,97.62
2022-09-04T03:29:37.798Z,97.82
2022-09-04T03:30:37.799Z,97.92
2022-09-04T03:31:37.776Z,98.03
2022-09-04T03:32:37.776Z,97.00
2022-09-04T03:33:37.758Z,97.37
2022-09-04T03:34:37.773Z,97.41
2022-09-04T03:35:38.624Z,97.31
2022-09-04T03:36:37.767Z,97.92
2022-09-04T03:37:37.684Z,97.82
2022-09-04T03:38:37.723Z,97.92
2022-09-04T03:40:12.930Z,97.41
2022-09-04T03:41:11.135Z,97.31
2022-09-04T03:42:10.131Z,97.15
2022-09-04T03:42:37.706Z,97.52
2022-09-04T03:44:11.677Z,98.03
2022-09-04T03:44:37.691Z,98.07
2022-09-04T03:46:11.082Z,97.66
2022-09-04T04:02:25.328Z,99.19
2022-09-04T04:03:26.099Z,98.99
2022-09-04T04:04:59.765Z,99.29
2022-09-04T04:05:26.398Z,98.74
2022-09-04T04:06:59.270Z,99.66
2022-09-04T04:07:58.843Z,99.15
2022-09-04T04:08:58.862Z,99.15
2022-09-04T04:09:26.394Z,98.74
2022-09-04T04:10:26.495Z,99.45
2022-09-04T04:11:26.422Z,99.96
2022-09-04T04:12:27.227Z,99.71
2022-09-04T04:13:26.476Z,99.82
2022-09-04T04:14:26.392Z,99.10
2022-09-04T04:15:27.001Z,98.90
2022-09-04T04:16:27.019Z,98.69
2022-09-04T04:17:58.722Z,98.38
2022-09-04T04:18:26.377Z,98.49
2022-09-04T04:19:26.294Z,98.53
2022-09-04T04:20:26.281Z,98.49
2022-09-04T04:21:26.256Z,98.69
2022-09-04T04:22:26.256Z,98.53
2022-09-04T04:23:26.237Z,98.22
2022-09-04T04:24:26.264Z,98.38
2022-09-04T04:26:00.925Z,98.53
2022-09-04T04:26:26.401Z,98.58
2022-09-04T04:27:59.446Z,97.77
2022-09-04T04:28:26.319Z,98.33
2022-09-04T04:29:26.856Z,98.12
2022-09-04T04:30:26.204Z,98.12
2022-09-04T04:31:26.227Z,98.33
2022-09-04T04:32:26.202Z,98.33
2022-09-04T04:33:26.830Z,98.33
2022-09-04T04:34:26.185Z,98.22
2022-09-04T04:35:26.149Z,98.22
2022-09-04T04:36:59.365Z,97.96
2022-09-04T04:37:26.443Z,98.02
2022-09-04T04:38:28.925Z,98.53
2022-09-04T04:39:30.288Z,98.53
2022-09-04T04:40:27.457Z,98.53
2022-09-04T04:41:26.404Z,98.63
2022-09-04T04:42:26.292Z,98.63
2022-09-04T04:43:26.361Z,99.04
2022-09-04T04:44:26.285Z,99.35
2022-09-04T04:45:27.415Z,99.04
2022-09-04T04:46:27.238Z,99.45
2022-09-04T04:47:27.147Z,99.45
2022-09-04T04:48:26.249Z,99.10
2022-09-04T04:49:26.182Z,99.15
2022-09-04T04:50:26.208Z,98.94
2022-09-04T04:51:26.193Z,98.53
2022-09-04T04:52:26.117Z,98.74
2022-09-04T04:53:26.121Z,98.12
2022-09-04T04:54:26.173Z,98.12
2022-09-04T04:55:26.854Z,98.12
2022-09-04T04:56:26.155Z,98.07
2022-09-04T04:57:26.059Z,98.63
2022-09-04T04:58:26.128Z,98.63
2022-09-04T04:59:26.204Z,97.71
2022-09-04T05:00:27.768Z,98.22
2022-09-04T05:01:27.915Z,98.69
2022-09-04T05:02:26.236Z,98.07
2022-09-04T05:03:26.132Z,98.49
2022-09-04T05:04:26.858Z,98.24
2022-09-04T05:05:26.107Z,98.69
2022-09-04T05:06:26.028Z,98.38
2022-09-04T05:07:25.966Z,98.49
2022-09-04T05:08:26.329Z,97.82
2022-09-04T05:09:26.039Z,97.97
2022-09-04T05:10:26.637Z,97.87
2022-09-04T05:11:26.042Z,97.52
2022-09-04T05:12:26.858Z,97.21
2022-09-04T05:13:26.151Z,97.46
2022-09-04T05:14:26.037Z,97.62
2022-09-04T05:15:26.001Z,97.72
2022-09-04T05:16:26.914Z,97.82
2022-09-04T05:17:25.872Z,97.21
2022-09-04T05:18:25.974Z,97.11
2022-09-04T05:19:25.941Z,97.11
2022-09-04T05:20:25.975Z,97.02
2022-09-04T05:21:25.891Z,96.62
2022-09-04T05:22:26.363Z,94.95
2022-09-04T05:23:28.952Z,93.24
2022-09-04T05:24:25.935Z,90.81
2022-09-04T05:25:26.016Z,88.65
2022-09-04T05:26:25.881Z,86.43
2022-09-04T05:27:25.996Z,83.71
2022-09-04T05:28:25.985Z,82.35
2022-09-04T05:29:29.336Z,80.92
2022-09-04T05:30:27.861Z,79.67
2022-09-04T05:31:25.962Z,77.17
2022-09-04T05:32:25.800Z,76.22
2022-09-04T05:33:25.907Z,75.27
2022-09-04T05:34:25.887Z,74.84
2022-09-04T05:35:25.810Z,73.93
2022-09-04T05:36:26.949Z,73.15
2022-09-04T05:37:25.890Z,71.80
2022-09-04T05:38:26.365Z,71.44
2022-09-04T05:39:26.657Z,72.04
2022-09-04T05:40:25.809Z,72.00
2022-09-04T05:41:26.736Z,71.91
2022-09-04T05:42:26.383Z,72.11
2022-09-04T05:43:26.376Z,73.25
2022-09-04T05:44:26.366Z,72.00
2022-09-04T05:45:25.749Z,72.41
2022-09-04T05:46:25.833Z,72.91
2022-09-04T05:47:30.334Z,71.06
2022-09-04T05:48:27.864Z,71.47
2022-09-04T05:49:25.782Z,72.27
2022-09-04T05:50:25.802Z,73.62
2022-09-04T05:51:25.805Z,73.93
2022-09-04T05:52:25.949Z,73.62
2022-09-04T05:53:25.824Z,73.75
2022-09-04T05:54:25.942Z,71.37
2022-09-04T05:55:26.746Z,69.49
2022-09-04T05:56:25.818Z,68.21
2022-09-04T05:57:25.732Z,67.47
2022-09-04T05:58:26.417Z,67.07
2022-09-04T05:59:26.371Z,67.61
2022-09-04T06:00:26.370Z,67.21
2022-09-04T06:01:25.694Z,69.55
2022-09-04T06:02:25.784Z,70.83
2022-09-04T06:03:25.629Z,72.51
2022-09-04T06:04:25.789Z,69.49
2022-09-04T06:05:26.397Z,70.42
2022-09-04T06:06:25.755Z,70.53
2022-09-04T06:07:25.717Z,70.46
2022-09-04T06:08:28.631Z,70.39
2022-09-04T06:09:26.649Z,68.85
2022-09-04T06:10:26.376Z,69.09
2022-09-04T06:11:25.536Z,69.29
2022-09-04T06:12:25.748Z,69.38
2022-09-04T06:13:27.431Z,69.15
2022-09-04T06:14:25.792Z,69.15
2022-09-04T06:15:27.374Z,68.08
2022-09-04T06:16:25.676Z,67.74
2022-09-04T06:17:25.780Z,64.74
2022-09-04T06:18:26.476Z,64.61
2022-09-04T06:19:26.377Z,64.07
2022-09-04T06:20:25.484Z,63.64
2022-09-04T06:21:26.382Z,62.48
2022-09-04T06:22:26.879Z,60.66
2022-09-04T06:23:26.247Z,58.78
2022-09-04T06:24:25.729Z,57.64
2022-09-04T06:25:25.894Z,58.81
2022-09-04T06:26:26.282Z,57.65
2022-09-04T06:27:27.387Z,57.30
2022-09-04T06:28:25.577Z,56.15
2022-09-04T06:29:25.456Z,55.20
2022-09-04T06:30:25.511Z,54.48
2022-09-04T06:31:25.578Z,54.50
2022-09-04T06:32:25.468Z,54.80
2022-09-04T06:33:25.493Z,55.10
2022-09-04T06:34:25.457Z,55.23
2022-09-04T06:35:26.218Z,57.26
2022-09-04T06:36:26.839Z,59.49
2022-09-04T06:37:25.344Z,60.82
2022-09-04T06:38:25.987Z,61.65
2022-09-04T06:39:25.431Z,64.34
2022-09-04T06:40:25.377Z,68.01
2022-09-04T06:41:26.216Z,69.32
2022-09-04T06:43:00.422Z,70.06
2022-09-04T06:43:29.527Z,70.36
2022-09-04T06:44:25.250Z,69.38
2022-09-04T06:45:25.369Z,69.59
2022-09-04T06:46:26.448Z,68.52
2022-09-04T06:47:25.307Z,67.65
2022-09-04T06:48:25.382Z,67.14
2022-09-04T06:49:25.293Z,66.71
2022-09-04T06:50:26.927Z,64.98
2022-09-04T06:51:25.307Z,64.22
2022-09-04T06:52:25.249Z,64.12
2022-09-04T06:53:25.299Z,64.31
2022-09-04T06:54:25.925Z,64.22
2022-09-04T06:55:27.061Z,65.51
2022-09-04T06:56:25.270Z,65.65
2022-09-04T06:57:25.165Z,63.78
2022-09-04T06:58:25.341Z,64.48
2022-09-04T06:59:25.163Z,64.09
2022-09-04T07:00:25.492Z,63.53
2022-09-04T07:01:25.236Z,62.79
2022-09-04T07:02:25.400Z,63.22
2022-09-04T07:03:25.168Z,62.52
2022-09-04T07:04:26.700Z,62.95
2022-09-04T07:05:25.181Z,62.39
2022-09-04T07:06:25.932Z,61.21
2022-09-04T07:07:25.382Z,59.62
2022-09-04T07:08:25.813Z,60.11
2022-09-04T07:09:25.232Z,62.92
2022-09-04T07:10:25.677Z,64.12
2022-09-04T07:11:25.272Z,64.92
2022-09-04T07:12:25.096Z,63.95
2022-09-04T07:13:25.069Z,63.39
2022-09-04T07:14:25.131Z,63.29
2022-09-04T07:15:25.224Z,61.33
2022-09-04T07:16:25.942Z,61.57
2022-09-04T07:17:25.935Z,60.05
2022-09-04T07:18:25.214Z,61.27
2022-09-04T07:19:25.051Z,61.04
2022-09-04T07:20:25.944Z,62.26
2022-09-04T07:21:27.787Z,62.82
2022-09-04T07:22:25.940Z,64.92
2022-09-04T07:23:26.009Z,63.95
2022-09-04T07:24:26.937Z,65.19
2022-09-04T07:25:25.952Z,64.42
2022-09-04T07:26:25.442Z,62.20
2022-09-04T07:27:24.992Z,60.32
2022-09-04T07:28:25.101Z,58.01
2022-09-04T07:29:26.114Z,58.11
2022-09-04T07:30:26.082Z,57.42
2022-09-04T07:31:25.069Z,58.31
2022-09-04T07:32:25.440Z,59.30
2022-09-04T07:33:25.354Z,58.74
2022-09-04T07:34:25.068Z,57.09
2022-09-04T07:35:25.782Z,56.04
2022-09-04T07:36:29.496Z,56.70
2022-09-04T07:37:27.010Z,57.49
2022-09-04T07:38:25.022Z,57.09
2022-09-04T07:39:24.977Z,57.42
2022-09-04T07:40:24.891Z,57.82
2022-09-04T07:41:25.863Z,56.14
2022-09-04T07:42:26.563Z,57.26
2022-09-04T07:43:26.947Z,56.67
2022-09-04T07:44:25.952Z,55.17
2022-09-04T07:46:00.395Z,53.83
2022-09-04T07:46:25.861Z,53.41
2022-09-04T07:47:24.961Z,55.02
2022-09-04T07:48:26.428Z,57.09
2022-09-04T07:49:25.738Z,58.14
2022-09-04T07:50:25.834Z,58.31
2022-09-04T07:51:25.481Z,56.61
2022-09-04T07:52:25.477Z,56.21
2022-09-04T07:53:24.825Z,54.77
2022-09-04T07:54:25.892Z,54.75
2022-09-04T07:55:25.779Z,55.69
2022-09-04T07:56:25.476Z,56.02
2022-09-04T07:57:24.865Z,55.82
2022-09-04T07:58:26.526Z,54.89
2022-09-04T07:59:24.802Z,52.51
2022-09-04T08:00:24.764Z,51.92
2022-09-04T08:01:24.784Z,51.00
2022-09-04T08:02:24.926Z,51.45
2022-09-04T08:03:25.262Z,53.63
2022-09-04T08:04:24.849Z,53.85
2022-09-04T08:05:25.486Z,54.35
2022-09-04T08:06:24.687Z,56.77
2022-09-04T08:07:24.895Z,58.47
2022-09-04T08:08:24.743Z,60.58
2022-09-04T08:09:25.782Z,61.60
2022-09-04T08:10:24.718Z,61.87
2022-09-04T08:11:24.723Z,61.47
2022-09-04T08:12:25.314Z,60.69
2022-09-04T08:13:24.787Z,58.71
2022-09-04T08:14:25.486Z,57.99
2022-09-04T08:15:24.751Z,57.12
2022-09-04T08:16:25.559Z,58.64
2022-09-04T08:17:24.774Z,59.23
2022-09-04T08:18:24.670Z,58.39
2022-09-04T08:19:25.606Z,57.73
2022-09-04T08:20:24.619Z,57.53
2022-09-04T08:21:24.638Z,57.26
2022-09-04T08:22:28.252Z,58.26
2022-09-04T08:23:25.609Z,57.64
2022-09-04T08:24:24.567Z,56.98
2022-09-04T08:25:24.626Z,56.38
2022-09-04T08:26:24.722Z,55.76
2022-09-04T08:27:57.086Z,55.99
2022-09-04T08:28:24.598Z,57.86
2022-09-04T08:29:24.564Z,58.09
2022-09-04T08:30:24.574Z,57.70
2022-09-04T08:31:56.908Z,57.51
2022-09-04T08:32:24.472Z,56.23
2022-09-04T08:33:25.487Z,55.58
2022-09-04T08:34:24.486Z,53.40
2022-09-04T08:35:24.488Z,51.75
2022-09-04T08:36:24.518Z,50.71
2022-09-04T08:37:24.506Z,50.49
2022-09-04T08:38:24.482Z,49.43
2022-09-04T08:39:24.581Z,49.33
2022-09-04T08:40:24.510Z,49.77
2022-09-04T08:41:25.456Z,51.28
2022-09-04T08:42:25.616Z,51.50
2022-09-04T08:43:25.310Z,52.51
2022-09-04T08:44:25.157Z,53.03
2022-09-04T08:45:24.511Z,53.89
2022-09-04T08:46:28.325Z,53.25
2022-09-04T08:47:25.460Z,51.47
2022-09-04T08:48:25.589Z,51.77
2022-09-04T08:49:24.429Z,51.20
2022-09-04T08:50:24.441Z,53.33
2022-09-04T08:51:24.353Z,52.28
2022-09-04T08:52:24.391Z,51.54
2022-09-04T08:53:25.322Z,50.31
2022-09-04T08:54:24.427Z,49.38
2022-09-04T08:55:24.392Z,49.26
2022-09-04T08:56:24.389Z,49.23
2022-09-04T08:57:24.424Z,49.01
2022-09-04T08:58:26.033Z,50.09
2022-09-04T08:59:25.589Z,53.42
2022-09-04T09:00:24.558Z,53.85
2022-09-04T09:01:24.411Z,55.80
2022-09-04T09:02:24.415Z,55.51
2022-09-04T09:03:24.354Z,57.07
2022-09-04T09:04:24.888Z,55.70
2022-09-04T09:05:25.082Z,54.73
2022-09-04T09:06:24.357Z,53.25
2022-09-04T09:07:24.340Z,51.94
2022-09-04T09:08:27.389Z,51.59
2022-09-04T09:09:27.081Z,50.24
2022-09-04T09:10:26.094Z,49.41
2022-09-04T09:11:24.831Z,49.07
2022-09-04T09:12:25.345Z,47.64
2022-09-04T09:13:24.262Z,46.44
2022-09-04T09:14:24.267Z,46.47
2022-09-04T09:15:24.244Z,45.59
2022-09-04T09:16:24.295Z,46.95
2022-09-04T09:17:58.183Z,50.71
2022-09-04T09:18:56.642Z,53.81
2022-09-04T09:19:24.134Z,55.85
2022-09-04T09:20:24.165Z,55.47
2022-09-04T09:21:24.218Z,54.68
2022-09-04T09:22:57.250Z,54.21
2022-09-04T09:23:24.077Z,55.35
2022-09-04T09:24:24.120Z,54.61
2022-09-04T09:25:25.209Z,54.88
2022-09-04T09:26:24.186Z,52.92
2022-09-04T09:27:24.092Z,53.08
2022-09-04T09:28:24.660Z,53.02
2022-09-04T09:29:24.338Z,51.69
2022-09-04T09:30:24.125Z,49.85
2022-09-04T09:31:24.912Z,51.12
2022-09-04T09:32:24.192Z,51.12
2022-09-04T09:33:24.572Z,50.29
2022-09-04T09:34:24.106Z,49.55
2022-09-04T09:35:24.066Z,49.21
2022-09-04T09:36:24.063Z,48.35
2022-09-04T09:37:24.058Z,49.73
2022-09-04T09:38:24.125Z,49.99
2022-09-04T09:39:24.905Z,49.16
2022-09-04T09:40:24.026Z,48.82
2022-09-04T09:41:24.040Z,49.14
2022-09-04T09:42:24.064Z,49.14
2022-09-04T09:43:24.100Z,47.69
2022-09-04T09:44:24.051Z,46.97
2022-09-04T09:45:24.064Z,46.06
2022-09-04T09:46:24.893Z,48.23
2022-09-04T09:47:23.974Z,47.64
2022-09-04T09:48:23.988Z,47.74
2022-09-04T09:49:23.941Z,48.23
2022-09-04T09:50:24.080Z,48.85
2022-09-04T09:51:23.954Z,49.02
2022-09-04T09:52:23.987Z,48.45
2022-09-04T09:53:24.082Z,48.94
2022-09-04T09:54:23.971Z,51.05
2022-09-04T09:55:23.962Z,53.05
2022-09-04T09:56:23.901Z,54.58
2022-09-04T09:57:33.291Z,54.06
2022-09-04T09:58:24.907Z,53.32
2022-09-04T09:59:23.956Z,53.34
2022-09-04T10:00:23.897Z,55.00
2022-09-04T10:01:23.968Z,55.10
2022-09-04T10:02:23.941Z,54.78
2022-09-04T10:03:24.852Z,54.61
2022-09-04T10:04:23.855Z,55.20
2022-09-04T10:05:23.849Z,55.33
2022-09-04T10:06:23.900Z,54.16
2022-09-04T10:07:23.833Z,53.94
2022-09-04T10:08:35.363Z,53.42
2022-09-04T10:09:24.835Z,52.26
2022-09-04T10:10:23.830Z,51.10
2022-09-04T10:11:23.835Z,49.36
2022-09-04T10:12:23.837Z,49.33
2022-09-04T10:13:23.808Z,52.92
2022-09-04T10:14:25.287Z,56.76
2022-09-04T10:15:24.769Z,56.31
2022-09-04T10:16:23.855Z,55.37
2022-09-04T10:17:23.780Z,51.81
2022-09-04T10:18:23.756Z,51.22
2022-09-04T10:19:23.793Z,50.44
2022-09-04T10:20:23.720Z,51.28
2022-09-04T10:21:23.805Z,51.12
2022-09-04T10:22:23.729Z,53.94
2022-09-04T10:23:23.782Z,56.49
2022-09-04T10:24:23.737Z,57.97
2022-09-04T10:25:23.761Z,59.96
2022-09-04T10:26:23.737Z,59.63
2022-09-04T10:27:23.715Z,59.91
2022-09-04T10:28:23.671Z,58.39
2022-09-04T10:29:23.708Z,57.14
2022-09-04T10:30:23.780Z,57.86
2022-09-04T10:31:23.709Z,57.74
2022-09-04T10:32:23.690Z,58.01
2022-09-04T10:33:23.851Z,58.26
2022-09-04T10:34:23.703Z,57.97
2022-09-04T10:35:23.624Z,57.18
2022-09-04T10:36:23.671Z,56.61
2022-09-04T10:37:23.672Z,53.64
2022-09-04T10:38:23.737Z,52.38
2022-09-04T10:39:24.531Z,51.32
2022-09-04T10:40:23.673Z,49.82
2022-09-04T10:41:24.471Z,49.73
2022-09-04T10:42:23.576Z,49.63
2022-09-04T10:43:23.671Z,49.51
2022-09-04T10:44:23.593Z,49.26
2022-09-04T10:45:23.577Z,48.94
2022-09-04T10:46:23.738Z,49.08
2022-09-04T10:47:23.586Z,49.82
2022-09-04T10:48:27.937Z,50.24
2022-09-04T10:49:25.562Z,51.32
2022-09-04T10:50:23.568Z,52.75
2022-09-04T10:51:23.601Z,52.87
2022-09-04T10:52:23.525Z,51.72
2022-09-04T10:53:23.608Z,49.99
2022-09-04T10:54:23.601Z,50.56
2022-09-04T10:55:23.568Z,49.73
2022-09-04T10:56:23.509Z,49.41
2022-09-04T10:57:23.525Z,49.58
2022-09-04T10:58:23.531Z,52.26
2022-09-04T10:59:23.539Z,53.64
2022-09-04T11:00:23.490Z,54.98
2022-09-04T11:01:23.535Z,55.26
2022-09-04T11:02:23.555Z,55.68
2022-09-04T11:03:23.532Z,55.63
2022-09-04T11:04:23.487Z,57.17
2022-09-04T11:05:23.479Z,57.12
2022-09-04T11:06:23.425Z,56.07
2022-09-04T11:07:26.857Z,55.45
2022-09-04T11:08:25.457Z,54.63
2022-09-04T11:09:23.435Z,54.83
2022-09-04T11:10:23.437Z,55.05
2022-09-04T11:11:23.427Z,54.76
2022-09-04T11:12:23.490Z,53.30
2022-09-04T11:13:23.463Z,51.94
2022-09-04T11:14:23.380Z,49.97
2022-09-04T11:15:23.444Z,49.04
2022-09-04T11:16:23.439Z,48.33
2022-09-04T11:17:24.335Z,49.31
2022-09-04T11:18:23.384Z,48.60
2022-09-04T11:19:23.395Z,47.99
2022-09-04T11:20:23.313Z,47.57
2022-09-04T11:21:23.308Z,46.98
2022-09-04T11:22:23.370Z,46.49
2022-09-04T11:23:23.344Z,46.88
2022-09-04T11:24:24.368Z,47.66
2022-09-04T11:25:23.327Z,50.36
2022-09-04T11:26:23.309Z,51.62
2022-09-04T11:27:23.383Z,53.05
2022-09-04T11:28:23.332Z,52.31
2022-09-04T11:29:23.327Z,51.52
2022-09-04T11:30:23.308Z,52.41
2022-09-04T11:31:23.294Z,51.69
2022-09-04T11:32:23.340Z,52.61
2022-09-04T11:33:23.347Z,51.94
2022-09-04T11:34:23.272Z,50.88
2022-09-04T11:35:23.296Z,51.32
2022-09-04T11:36:23.233Z,49.68
2022-09-04T11:37:23.213Z,48.94
2022-09-04T11:38:23.222Z,48.60
2022-09-04T11:39:23.226Z,46.91
2022-09-04T11:40:23.329Z,46.69
2022-09-04T11:41:23.203Z,45.98
2022-09-04T11:42:23.216Z,47.08
2022-09-04T11:43:23.277Z,46.17
2022-09-04T11:44:23.955Z,47.39
2022-09-04T11:45:23.232Z,49.21
2022-09-04T11:46:23.177Z,49.60
2022-09-04T11:47:23.202Z,51.03
2022-09-04T11:48:23.152Z,51.35
2022-09-04T11:49:23.140Z,51.28
2022-09-04T11:50:23.150Z,52.53
2022-09-04T11:51:23.126Z,53.80
2022-09-04T11:52:23.107Z,54.81
2022-09-04T11:53:23.126Z,54.81
2022-09-04T11:54:23.115Z,54.69
2022-09-04T11:55:23.112Z,53.55
2022-09-04T11:56:23.061Z,52.06
2022-09-04T11:57:23.125Z,50.24
2022-09-04T11:58:23.117Z,49.80
2022-09-04T11:59:23.083Z,50.66
2022-09-04T12:00:23.126Z,52.41
2022-09-04T12:01:23.879Z,53.28
2022-09-04T12:02:23.071Z,53.47
2022-09-04T12:03:23.137Z,53.57
2022-09-04T12:04:23.162Z,53.35
2022-09-04T12:05:24.023Z,53.10
2022-09-04T12:06:23.055Z,52.06
2022-09-04T12:07:23.008Z,51.23
2022-09-04T12:08:23.000Z,51.42
2022-09-04T12:09:23.030Z,50.63
2022-09-04T12:10:23.083Z,49.60
2022-09-04T12:11:22.998Z,49.70
2022-09-04T12:12:23.011Z,49.30
2022-09-04T12:13:23.042Z,50.38
2022-09-04T12:14:22.964Z,51.72
2022-09-04T12:15:23.960Z,51.72
2022-09-04T12:16:23.067Z,50.59
2022-09-04T12:17:22.940Z,51.40
2022-09-04T12:18:22.942Z,51.15
2022-09-04T12:19:22.953Z,50.44
2022-09-04T12:20:22.940Z,49.68
2022-09-04T12:21:22.925Z,49.58
2022-09-04T12:22:22.967Z,50.12
2022-09-04T12:23:22.995Z,50.07
2022-09-04T12:24:22.921Z,51.35
2022-09-04T12:25:22.889Z,51.69
2022-09-04T12:26:22.908Z,51.67
2022-09-04T12:27:22.899Z,51.32
2022-09-04T12:28:22.902Z,50.36
2022-09-04T12:29:22.910Z,51.77
2022-09-04T12:30:22.852Z,51.62
2022-09-04T12:31:22.925Z,53.25
2022-09-04T12:32:22.890Z,53.77
2022-09-04T12:33:22.991Z,53.35
2022-09-04T12:34:22.883Z,52.21
2022-09-04T12:35:22.890Z,51.50
2022-09-04T12:36:22.856Z,51.72
2022-09-04T12:37:22.880Z,52.53
2022-09-04T12:38:22.876Z,52.51
2022-09-04T12:39:22.858Z,53.15
2022-09-04T12:40:22.798Z,53.47
2022-09-04T12:41:22.845Z,53.80
2022-09-04T12:42:22.856Z,54.79
2022-09-04T12:43:22.870Z,54.71
2022-09-04T12:44:22.751Z,55.08
2022-09-04T12:45:22.937Z,53.94
2022-09-04T12:46:22.755Z,52.93
2022-09-04T12:47:22.749Z,53.35
2022-09-04T12:48:22.725Z,53.64
2022-09-04T12:49:23.818Z,54.79
2022-09-04T12:50:22.731Z,55.01
2022-09-04T12:51:23.737Z,55.18
2022-09-04T12:52:23.514Z,54.04
2022-09-04T12:53:22.758Z,53.72
2022-09-04T12:54:22.787Z,53.03
2022-09-04T12:55:23.701Z,52.51
2022-09-04T12:56:22.668Z,52.09
2022-09-04T12:57:22.723Z,51.77
2022-09-04T12:58:22.723Z,51.67
2022-09-04T12:59:22.628Z,52.48
2022-09-04T13:00:23.683Z,53.45
2022-09-04T13:01:22.847Z,54.29
2022-09-04T13:02:22.721Z,53.38
2022-09-04T13:03:22.723Z,53.45
2022-09-04T13:04:22.622Z,53.15
2022-09-04T13:05:23.619Z,53.15
2022-09-04T13:06:22.609Z,51.77
2022-09-04T13:07:22.707Z,52.69
2022-09-04T13:08:22.604Z,52.66
2022-09-04T13:09:22.615Z,52.56
2022-09-04T13:10:22.624Z,52.88
2022-09-04T13:11:22.555Z,52.66
2022-09-04T13:12:22.602Z,52.66
2022-09-04T13:13:22.640Z,52.58
2022-09-04T13:14:22.574Z,52.58
2022-09-04T13:15:22.548Z,52.58
2022-09-04T13:16:22.628Z,52.98
2022-09-04T13:17:22.581Z,53.15
2022-09-04T13:18:22.625Z,52.66
2022-09-04T13:19:22.548Z,52.76
2022-09-04T13:20:22.548Z,53.08
2022-09-04T13:21:22.632Z,52.88
2022-09-04T13:22:22.506Z,53.18
2022-09-04T13:23:22.749Z,53.80
2022-09-04T13:24:22.487Z,53.47
2022-09-04T13:25:22.567Z,53.47